createdAt,value
2022-10-17T00:00:48.524Z,99704.91
2022-10-17T00:03:15.339Z,99687.94
2022-10-17T00:05:44.330Z,99701.00
2022-10-17T00:08:12.271Z,99698.53
2022-10-17T00:10:39.680Z,99699.59
2022-10-17T00:13:07.921Z,99703.41
2022-10-17T00:15:34.677Z,99695.22
2022-10-17T00:18:01.615Z,99699.03
2022-10-17T00:20:30.425Z,99702.81
2022-10-17T00:22:57.423Z,99698.38
2022-10-17T00:25:24.304Z,99705.72
2022-10-17T00:27:51.027Z,99699.94
2022-10-17T00:30:17.917Z,99707.53
2022-10-17T00:32:45.018Z,99704.19
2022-10-17T00:35:11.791Z,99705.28
2022-10-17T00:37:38.670Z,99709.06
2022-10-17T00:40:06.880Z,99699.47
2022-10-17T00:42:33.646Z,99709.56
2022-10-17T00:45:05.771Z,99706.00
2022-10-17T00:47:33.626Z,99699.97
2022-10-17T00:52:34.090Z,99702.38
2022-10-17T00:55:10.772Z,99698.22
2022-10-17T00:57:39.043Z,99703.94
2022-10-17T01:00:09.810Z,99705.84
2022-10-17T01:02:37.068Z,99698.97
2022-10-17T01:05:04.722Z,99697.31
2022-10-17T01:07:34.917Z,99696.50
2022-10-17T01:10:05.602Z,99695.66
2022-10-17T01:12:35.045Z,99693.19
2022-10-17T01:15:04.546Z,99698.03
2022-10-17T01:17:49.860Z,99688.69
2022-10-17T01:20:22.381Z,99691.91
2022-10-17T01:23:28.752Z,99687.28
2022-10-17T01:26:13.616Z,99683.38
2022-10-17T01:28:58.893Z,99683.88
2022-10-17T01:31:35.530Z,99684.12
2022-10-17T01:34:32.243Z,99680.56
2022-10-17T01:37:23.761Z,99685.19
2022-10-17T01:39:55.035Z,99683.53
2022-10-17T01:42:27.569Z,99687.56
2022-10-17T01:45:14.202Z,99676.66
2022-10-17T01:47:42.674Z,99677.12
2022-10-17T01:50:18.429Z,99683.53
2022-10-17T01:52:51.065Z,99673.47
2022-10-17T01:55:23.782Z,99679.72
2022-10-17T01:58:04.582Z,99677.00
2022-10-17T02:00:32.709Z,99675.94
2022-10-17T02:03:04.711Z,99679.72
2022-10-17T02:05:36.827Z,99677.00
2022-10-17T02:08:04.108Z,99675.94
2022-10-17T02:10:43.013Z,99673.22
2022-10-17T02:13:31.505Z,99673.47
2022-10-17T02:16:12.268Z,99680.56
2022-10-17T02:18:47.783Z,99673.47
2022-10-17T02:21:23.009Z,99675.09
2022-10-17T02:24:04.852Z,99674.53
2022-10-17T02:26:44.650Z,99674.53
2022-10-17T02:29:19.486Z,99676.44
2022-10-17T02:31:59.300Z,99678.81
2022-10-17T02:34:49.317Z,99677.38
2022-10-17T02:37:20.137Z,99674.41
2022-10-17T02:39:48.469Z,99679.53
2022-10-17T02:42:16.213Z,99688.19
2022-10-17T02:44:45.091Z,99684.62
2022-10-17T02:47:20.275Z,99680.00
2022-10-17T02:49:52.652Z,99680.25
2022-10-17T02:52:26.464Z,99684.88
2022-10-17T02:55:10.892Z,99688.09
2022-10-17T02:57:41.803Z,99679.09
2022-10-17T03:00:12.360Z,99687.25
2022-10-17T03:02:45.561Z,99684.78
2022-10-17T03:05:15.005Z,99686.44
2022-10-17T03:07:41.780Z,99685.03
2022-10-17T03:10:08.619Z,99680.66
2022-10-17T03:12:35.347Z,99683.59
2022-10-17T03:15:02.501Z,99687.41
2022-10-17T03:17:29.218Z,99686.00
2022-10-17T03:19:55.973Z,99686.59
2022-10-17T03:22:22.745Z,99698.56
2022-10-17T03:24:49.475Z,99691.44
2022-10-17T03:27:16.278Z,99695.25
2022-10-17T03:29:43.014Z,99700.69
2022-10-17T03:32:09.776Z,99704.69
2022-10-17T03:34:36.512Z,99703.63
2022-10-17T03:37:03.369Z,99700.06
2022-10-17T03:39:30.110Z,99700.56
2022-10-17T03:41:56.884Z,99703.03
2022-10-17T03:44:23.682Z,99703.03
2022-10-17T03:46:50.464Z,99705.19
2022-10-17T03:49:17.224Z,99712.53
2022-10-17T03:51:43.916Z,99706.59
2022-10-17T03:54:10.658Z,99718.09
2022-10-17T03:56:37.395Z,99709.31
2022-10-17T03:59:04.160Z,99715.84
2022-10-17T04:01:31.019Z,99714.78
2022-10-17T04:03:58.047Z,99717.75
2022-10-17T04:06:24.963Z,99719.06
2022-10-17T04:08:51.712Z,99719.87
2022-10-17T04:11:20.736Z,99726.16
2022-10-17T04:13:48.553Z,99717.16
2022-10-17T04:16:16.999Z,99725.34
2022-10-17T04:18:43.914Z,99732.69
2022-10-17T04:21:11.775Z,99729.97
2022-10-17T04:23:39.411Z,99729.97
2022-10-17T04:26:07.104Z,99736.47
2022-10-17T04:28:34.478Z,99725.56
2022-10-17T04:31:07.095Z,99733.50
2022-10-17T04:33:34.562Z,99735.41
2022-10-17T04:36:03.886Z,99739.78
2022-10-17T04:38:31.021Z,99742.75
2022-10-17T04:41:03.343Z,99749.03
2022-10-17T04:43:31.284Z,99750.69
2022-10-17T04:46:02.465Z,99743.59
2022-10-17T04:48:30.400Z,99750.09
2022-10-17T04:51:05.874Z,99743.78
2022-10-17T04:53:34.823Z,99753.66
2022-10-17T04:56:02.104Z,99744.41
2022-10-17T04:58:30.309Z,99749.87
2022-10-17T05:00:57.180Z,99746.31
2022-10-17T05:03:24.001Z,99753.66
2022-10-17T05:05:50.725Z,99753.41
2022-10-17T05:08:17.465Z,99757.22
2022-10-17T05:10:46.229Z,99759.94
2022-10-17T05:13:13.433Z,99765.59
2022-10-17T05:15:40.248Z,99765.59
2022-10-17T05:18:07.386Z,99768.56
2022-10-17T05:20:34.374Z,99772.34
2022-10-17T05:23:01.367Z,99774.00
2022-10-17T05:25:28.226Z,99774.00
2022-10-17T05:27:54.987Z,99776.50
2022-10-17T05:30:21.842Z,99775.47
2022-10-17T05:32:48.646Z,99777.12
2022-10-17T05:35:15.409Z,99776.88
2022-10-17T05:37:42.114Z,99771.66
2022-10-17T05:40:09.411Z,99774.16
2022-10-17T05:42:36.216Z,99777.94
2022-10-17T05:45:03.950Z,99786.72
2022-10-17T05:47:31.239Z,99794.87
2022-10-17T05:49:58.210Z,99790.25
2022-10-17T05:52:25.143Z,99793.81
2022-10-17T05:54:51.909Z,99802.00
2022-10-17T05:57:18.704Z,99805.31
2022-10-17T05:59:45.426Z,99812.66
2022-10-17T06:02:15.366Z,99814.34
2022-10-17T06:04:45.653Z,99811.37
2022-10-17T06:07:13.093Z,99818.25
2022-10-17T06:09:40.334Z,99820.13
2022-10-17T06:12:08.014Z,99827.00
2022-10-17T06:14:35.223Z,99827.34
2022-10-17T06:17:02.080Z,99833.87
2022-10-17T06:19:28.847Z,99839.09
2022-10-17T06:21:55.690Z,99835.06
2022-10-17T06:24:22.507Z,99840.28
2022-10-17T06:26:50.002Z,99840.63
2022-10-17T06:29:17.158Z,99842.28
2022-10-17T06:31:44.133Z,99842.88
2022-10-17T06:34:11.138Z,99841.78
2022-10-17T06:36:37.913Z,99856.03
2022-10-17T06:39:04.763Z,99866.47
2022-10-17T06:41:31.494Z,99866.22
2022-10-17T06:43:58.304Z,99868.47
2022-10-17T06:46:26.920Z,99872.84
2022-10-17T06:48:53.648Z,99874.28
2022-10-17T06:51:20.362Z,99881.38
2022-10-17T06:53:47.318Z,99886.37
2022-10-17T06:56:14.117Z,99889.69
2022-10-17T06:58:41.674Z,99890.28
2022-10-17T07:01:13.458Z,99903.41
2022-10-17T07:03:41.211Z,99904.88
2022-10-17T07:06:08.326Z,99907.94
2022-10-17T07:08:35.061Z,99914.22
2022-10-17T07:11:10.249Z,99918.38
2022-10-17T07:13:39.321Z,99920.38
2022-10-17T07:16:06.883Z,99924.53
2022-10-17T07:18:33.779Z,99928.66
2022-10-17T07:21:01.267Z,99934.47
2022-10-17T07:23:28.114Z,99932.34
2022-10-17T07:26:03.541Z,99928.31
2022-10-17T07:28:30.375Z,99934.38
2022-10-17T07:31:03.775Z,99935.78
2022-10-17T07:33:30.704Z,99933.41
2022-10-17T07:35:59.862Z,99933.16
2022-10-17T07:38:27.945Z,99932.09
2022-10-17T07:40:56.234Z,99938.72
2022-10-17T07:43:24.484Z,99937.41
2022-10-17T07:45:51.893Z,99942.63
2022-10-17T07:48:19.810Z,99943.00
2022-10-17T07:50:46.609Z,99942.75
2022-10-17T07:53:13.718Z,99943.94
2022-10-17T07:55:42.003Z,99942.13
2022-10-17T07:58:09.798Z,99947.94
2022-10-17T08:00:37.376Z,99949.00
2022-10-17T08:03:04.840Z,99953.97
2022-10-17T08:05:32.117Z,99952.41
2022-10-17T08:07:59.021Z,99958.53
2022-10-17T08:10:29.923Z,99956.13
2022-10-17T08:12:58.086Z,99966.56
2022-10-17T08:15:29.405Z,99965.25
2022-10-17T08:17:58.770Z,99969.38
2022-10-17T08:20:25.608Z,99974.38
2022-10-17T08:22:55.853Z,99971.13
2022-10-17T08:25:23.628Z,99970.91
2022-10-17T08:27:50.609Z,99969.56
2022-10-17T08:30:17.675Z,99970.78
2022-10-17T08:32:44.479Z,99971.13
2022-10-17T08:35:11.278Z,99968.22
2022-10-17T08:37:38.015Z,99973.19
2022-10-17T08:40:05.246Z,99981.72
2022-10-17T08:42:55.703Z,99978.28
2022-10-17T08:45:49.041Z,99979.69
2022-10-17T08:48:23.472Z,99973.25
2022-10-17T08:51:05.181Z,99978.78
2022-10-17T08:54:00.821Z,99979.97
2022-10-17T08:56:47.965Z,99976.25
2022-10-17T08:59:27.525Z,99977.44
2022-10-17T09:02:03.717Z,99986.78
2022-10-17T09:04:52.878Z,99987.69
2022-10-17T09:07:33.030Z,99987.78
2022-10-17T09:10:07.894Z,99984.91
2022-10-17T09:12:45.709Z,99994.59
2022-10-17T09:15:21.559Z,99996.59
2022-10-17T09:17:56.211Z,99989.53
2022-10-17T09:20:26.586Z,99988.44
2022-10-17T09:23:16.219Z,99993.22
2022-10-17T09:25:50.529Z,99988.09
2022-10-17T09:28:22.169Z,99987.09
2022-10-17T09:31:13.145Z,99986.56
2022-10-17T09:33:53.989Z,99982.94
2022-10-17T09:36:33.676Z,99987.41
2022-10-17T09:39:05.177Z,99981.16
2022-10-17T09:41:46.882Z,99983.72
2022-10-17T09:44:16.345Z,99983.63
2022-10-17T09:46:56.472Z,99985.06
2022-10-17T09:49:32.796Z,99990.03
2022-10-17T09:52:01.915Z,99990.34
2022-10-17T09:54:39.823Z,99991.53
2022-10-17T09:57:09.401Z,99993.50
2022-10-17T09:59:38.684Z,99999.31
2022-10-17T10:02:25.691Z,99993.06
2022-10-17T10:05:03.756Z,99992.59
2022-10-17T10:07:34.507Z,99994.34
2022-10-17T10:10:03.297Z,99996.09
2022-10-17T10:12:35.903Z,99994.22
2022-10-17T10:15:03.209Z,99995.09
2022-10-17T10:17:44.279Z,99996.56
2022-10-17T10:20:31.901Z,99995.28
2022-10-17T10:23:22.199Z,99994.50
2022-10-17T10:25:58.520Z,99996.19
2022-10-17T10:28:29.675Z,100007.25
2022-10-17T10:31:00.021Z,99994.09
2022-10-17T10:33:29.860Z,99995.50
2022-10-17T10:36:03.513Z,99999.13
2022-10-17T10:38:33.082Z,100000.50
2022-10-17T10:41:11.485Z,99998.88
2022-10-17T10:43:42.362Z,99993.22
2022-10-17T10:46:23.029Z,100000.91
2022-10-17T10:48:54.125Z,99995.75
2022-10-17T10:51:32.162Z,99997.12
2022-10-17T10:54:22.112Z,99991.13
2022-10-17T10:56:58.186Z,99992.25
2022-10-17T10:59:35.599Z,99989.81
2022-10-17T11:02:22.504Z,99988.22
2022-10-17T11:05:05.197Z,99983.84
2022-10-17T11:08:14.335Z,99982.22
2022-10-17T11:11:09.260Z,99982.28
2022-10-17T11:14:12.972Z,99977.91
2022-10-17T11:16:58.022Z,99973.06
2022-10-17T11:19:34.016Z,99980.22
2022-10-17T11:22:26.652Z,99978.59
2022-10-17T11:25:28.243Z,99976.16
2022-10-17T11:27:55.017Z,99968.19
2022-10-17T11:30:24.721Z,99972.34
2022-10-17T11:33:01.340Z,99966.88
2022-10-17T11:35:33.612Z,99971.59
2022-10-17T11:38:27.779Z,99977.91
2022-10-17T11:40:58.948Z,99974.09
2022-10-17T11:43:36.207Z,99977.16
2022-10-17T11:46:15.585Z,99964.53
2022-10-17T11:48:51.166Z,99962.34
2022-10-17T11:54:15.095Z,99962.94
2022-10-17T11:57:10.736Z,99961.28
2022-10-17T11:59:53.027Z,99956.94
2022-10-17T12:02:32.429Z,99956.94
2022-10-17T12:05:24.434Z,99959.72
2022-10-17T12:08:00.269Z,99953.66
2022-10-17T12:10:51.177Z,99950.66
2022-10-17T12:13:30.458Z,99947.09
2022-10-17T12:16:20.256Z,99954.56
2022-10-17T12:18:49.385Z,99942.19
2022-10-17T12:21:16.330Z,99943.31
2022-10-17T12:23:52.560Z,99940.56
2022-10-17T12:26:27.931Z,99940.28
2022-10-17T12:28:55.587Z,99940.06
2022-10-17T12:31:33.401Z,99942.25
2022-10-17T12:34:05.113Z,99940.06
2022-10-17T12:36:31.924Z,99945.56
2022-10-17T12:39:01.382Z,99938.94
2022-10-17T12:41:40.222Z,99937.03
2022-10-17T12:44:13.131Z,99928.50
2022-10-17T12:46:49.423Z,99932.06
2022-10-17T12:49:23.938Z,99929.88
2022-10-17T12:52:15.841Z,99925.78
2022-10-17T12:54:48.123Z,99931.81
2022-10-17T12:57:41.462Z,99929.62
2022-10-17T13:00:20.794Z,99923.00
2022-10-17T13:02:49.911Z,99924.37
2022-10-17T13:05:32.803Z,99914.47
2022-10-17T13:08:02.309Z,99922.19
2022-10-17T13:10:32.239Z,99924.37
2022-10-17T13:13:20.170Z,99922.44
2022-10-17T13:15:52.490Z,99920.81
2022-10-17T13:18:22.958Z,99918.06
2022-10-17T13:20:57.346Z,99917.22
2022-10-17T13:23:25.596Z,99923.28
2022-10-17T13:26:10.710Z,99916.94
2022-10-17T13:28:39.580Z,99917.53
2022-10-17T13:31:07.582Z,99910.34
2022-10-17T13:33:40.256Z,99912.53
2022-10-17T13:36:13.710Z,99911.44
2022-10-17T13:38:42.662Z,99911.44
2022-10-17T13:41:34.896Z,99913.94
2022-10-17T13:44:04.109Z,99914.50
2022-10-17T13:46:38.083Z,99914.22
2022-10-17T13:49:19.067Z,99911.44
2022-10-17T13:51:49.102Z,99905.66
2022-10-17T13:54:43.342Z,99917.22
2022-10-17T13:57:31.414Z,99908.97
2022-10-17T14:00:01.335Z,99905.09
2022-10-17T14:02:31.027Z,99901.25
2022-10-17T14:05:18.132Z,99905.66
2022-10-17T14:10:39.539Z,99907.88
2022-10-17T14:13:08.413Z,99914.75
2022-10-17T14:15:37.063Z,99904.56
2022-10-17T14:18:08.547Z,99910.63
2022-10-17T14:21:28.816Z,99911.44
2022-10-17T14:23:41.651Z,99915.56
2022-10-17T14:26:28.638Z,99915.00
2022-10-17T14:29:23.451Z,99916.94
2022-10-17T14:31:53.650Z,99913.62
2022-10-17T14:34:27.770Z,99910.59
2022-10-17T14:36:55.491Z,99915.81
2022-10-17T14:39:24.460Z,99904.50
2022-10-17T14:41:52.415Z,99908.91
2022-10-17T14:44:41.993Z,99910.84
2022-10-17T14:47:42.284Z,99910.03
2022-10-17T14:50:12.038Z,99902.59
2022-10-17T14:52:39.114Z,99907.25
2022-10-17T14:55:27.236Z,99903.69
2022-10-17T14:57:54.457Z,99911.94
2022-10-17T15:00:23.317Z,99907.53
2022-10-17T15:02:51.595Z,99905.91
2022-10-17T15:05:20.277Z,99908.66
2022-10-17T15:07:47.255Z,99912.50
2022-10-17T15:10:34.314Z,99909.75
2022-10-17T15:15:52.046Z,99909.22
2022-10-17T15:18:19.359Z,99912.78
2022-10-17T15:20:46.143Z,99915.00
2022-10-17T15:23:12.932Z,99916.94
2022-10-17T15:25:39.836Z,99911.69
2022-10-17T15:28:06.686Z,99909.22
2022-10-17T15:30:36.562Z,99922.19
2022-10-17T15:33:03.586Z,99918.59
2022-10-17T15:35:30.943Z,99918.88
2022-10-17T15:37:57.855Z,99921.09
2022-10-17T15:40:29.404Z,99925.78
2022-10-17T15:42:56.731Z,99926.88
2022-10-17T15:45:24.276Z,99923.03
2022-10-17T15:47:57.266Z,99924.94
2022-10-17T15:50:24.061Z,99929.91
2022-10-17T15:52:51.127Z,99927.69
2022-10-17T15:55:18.417Z,99929.34
2022-10-17T15:57:47.313Z,99929.34
2022-10-17T16:00:23.294Z,99926.03
2022-10-17T16:02:50.901Z,99922.47
2022-10-17T16:05:23.794Z,99924.09
2022-10-17T16:07:50.795Z,99932.63
2022-10-17T16:10:17.935Z,99934.56
2022-10-17T16:12:45.729Z,99942.00
2022-10-17T16:15:16.696Z,99939.81
2022-10-17T16:17:44.336Z,99927.94
2022-10-17T16:20:13.030Z,99929.59
2022-10-17T16:22:42.251Z,99932.63
2022-10-17T16:25:22.565Z,99935.09
2022-10-17T16:27:52.322Z,99935.34
2022-10-17T16:30:20.227Z,99942.22
2022-10-17T16:32:47.776Z,99950.47
2022-10-17T16:35:18.659Z,99950.47
2022-10-17T16:37:45.472Z,99946.88
2022-10-17T16:40:12.383Z,99953.75
2022-10-17T16:42:39.123Z,99949.84
2022-10-17T16:45:06.546Z,99950.91
2022-10-17T16:47:33.358Z,99958.31
2022-10-17T16:50:00.213Z,99956.66
2022-10-17T16:52:27.229Z,99959.91
2022-10-17T16:54:54.084Z,99957.16
2022-10-17T16:57:20.838Z,99958.78
2022-10-17T16:59:47.625Z,99963.19
2022-10-17T17:02:17.556Z,99965.09
2022-10-17T17:04:47.564Z,99962.28
2022-10-17T17:07:14.471Z,99957.03
2022-10-17T17:09:41.426Z,99954.00
2022-10-17T17:12:08.869Z,99957.81
2022-10-17T17:14:36.119Z,99957.81
2022-10-17T17:17:03.713Z,99963.25
2022-10-17T17:19:31.131Z,99968.72
2022-10-17T17:21:58.684Z,99966.50
2022-10-17T17:24:26.159Z,99967.03
2022-10-17T17:26:55.670Z,99963.16
2022-10-17T17:29:25.064Z,99962.03
2022-10-17T17:31:52.838Z,99970.47
2022-10-17T17:34:20.251Z,99967.12
2022-10-17T17:36:49.127Z,99972.06
2022-10-17T17:39:17.052Z,99968.19
2022-10-17T17:41:46.069Z,99970.66
2022-10-17T17:44:16.708Z,99969.53
2022-10-17T17:46:45.157Z,99971.94
2022-10-17T17:49:12.987Z,99969.72
2022-10-17T17:51:41.654Z,99974.91
2022-10-17T17:54:11.812Z,99974.62
2022-10-17T17:56:39.681Z,99972.13
2022-10-17T17:59:07.770Z,99972.66
2022-10-17T18:01:39.683Z,99973.44
2022-10-17T18:04:09.136Z,99978.09
2022-10-17T18:06:38.217Z,99965.41
2022-10-17T18:09:06.922Z,99971.16
2022-10-17T18:11:34.754Z,99967.53
2022-10-17T18:14:08.322Z,99978.47
2022-10-17T18:16:37.650Z,99970.25
2022-10-17T18:19:09.179Z,99968.56
2022-10-17T18:21:37.640Z,99964.91
2022-10-17T18:24:06.209Z,99968.72
2022-10-17T18:26:34.376Z,99962.94
2022-10-17T18:29:03.287Z,99966.22
2022-10-17T18:31:36.329Z,99963.47
2022-10-17T18:34:05.552Z,99970.00
2022-10-17T18:36:35.498Z,99970.25
2022-10-17T18:39:03.328Z,99973.75
2022-10-17T18:41:31.440Z,99965.22
2022-10-17T18:43:58.798Z,99973.13
2022-10-17T18:46:32.811Z,99972.28
2022-10-17T18:49:01.597Z,99973.91
2022-10-17T18:51:29.355Z,99974.97
2022-10-17T18:53:59.456Z,99973.56
2022-10-17T18:56:27.373Z,99971.06
2022-10-17T18:58:55.294Z,99977.63
2022-10-17T19:01:26.339Z,99964.94
2022-10-17T19:03:56.665Z,99970.69
2022-10-17T19:06:28.907Z,99964.06
2022-10-17T19:08:56.049Z,99969.53
2022-10-17T19:11:25.913Z,99966.16
2022-10-17T19:13:53.890Z,99970.06
2022-10-17T19:16:23.832Z,99964.81
2022-10-17T19:18:52.717Z,99970.00
2022-10-17T19:21:21.967Z,99969.69
2022-10-17T19:23:55.488Z,99972.69
2022-10-17T19:26:23.531Z,99971.28
2022-10-17T19:28:53.520Z,99971.53
2022-10-17T19:31:26.498Z,99975.59
2022-10-17T19:33:55.652Z,99973.41
2022-10-17T19:36:28.882Z,99970.34
2022-10-17T19:39:00.526Z,99969.78
2022-10-17T19:41:28.160Z,99963.16
2022-10-17T19:43:55.370Z,99967.81
2022-10-17T19:46:24.294Z,99969.16
2022-10-17T19:48:52.064Z,99972.66
2022-10-17T19:51:21.004Z,99963.63
2022-10-17T19:53:48.064Z,99971.25
2022-10-17T19:56:18.641Z,99956.75
2022-10-17T19:58:46.740Z,99964.13
2022-10-17T20:01:35.412Z,99964.59
2022-10-17T20:04:03.453Z,99959.38
2022-10-17T20:06:30.674Z,99953.84
2022-10-17T20:08:57.730Z,99956.25
2022-10-17T20:11:27.545Z,99955.75
2022-10-17T20:13:56.134Z,99958.75
2022-10-17T20:16:25.753Z,99951.88
2022-10-17T20:18:55.293Z,99958.69
2022-10-17T20:21:31.668Z,99948.81
2022-10-17T20:23:59.946Z,99941.44
2022-10-17T20:26:43.102Z,99949.91
2022-10-17T20:29:20.126Z,99956.72
2022-10-17T20:31:48.100Z,99949.84
2022-10-17T20:34:17.076Z,99956.13
2022-10-17T20:36:44.139Z,99950.66
2022-10-17T20:39:12.840Z,99944.59
2022-10-17T20:41:40.350Z,99951.12
2022-10-17T20:44:07.642Z,99951.62
2022-10-17T20:46:37.638Z,99947.50
2022-10-17T20:49:07.331Z,99962.28
2022-10-17T20:51:34.811Z,99958.13
2022-10-17T20:54:02.807Z,99956.22
2022-10-17T20:56:31.399Z,99956.47
2022-10-17T20:59:04.414Z,99964.94
2022-10-17T21:01:33.323Z,99960.78
2022-10-17T21:04:15.837Z,99959.12
2022-10-17T21:06:51.975Z,99953.34
2022-10-17T21:09:19.180Z,99958.00
2022-10-17T21:11:46.164Z,99949.78
2022-10-17T21:14:12.958Z,99954.69
2022-10-17T21:16:41.337Z,99943.16
2022-10-17T21:19:08.194Z,99941.47
2022-10-17T21:21:37.414Z,99942.28
2022-10-17T21:24:12.501Z,99941.25
2022-10-17T21:26:40.827Z,99947.75
2022-10-17T21:29:08.278Z,99946.13
2022-10-17T21:31:40.396Z,99948.03
2022-10-17T21:34:13.437Z,99943.62
2022-10-17T21:36:41.303Z,99944.19
2022-10-17T21:41:40.520Z,99942.56
2022-10-17T21:44:12.676Z,99940.28
2022-10-17T21:46:39.512Z,99944.94
2022-10-17T21:49:06.855Z,99943.53
2022-10-17T21:51:33.681Z,99943.28
2022-10-17T21:54:00.507Z,99934.25
2022-10-17T21:56:29.905Z,99936.16
2022-10-17T21:58:58.081Z,99939.97
2022-10-17T22:01:27.965Z,99940.22
2022-10-17T22:03:59.208Z,99939.37
2022-10-17T22:06:44.770Z,99932.25
2022-10-17T22:09:17.798Z,99933.59
2022-10-17T22:11:47.130Z,99934.66
2022-10-17T22:14:17.023Z,99926.47
2022-10-17T22:16:45.405Z,99934.09
2022-10-17T22:19:14.044Z,99941.72
2022-10-17T22:21:41.050Z,99946.38
2022-10-17T22:24:11.453Z,99935.94
2022-10-17T22:26:38.607Z,99939.97
2022-10-17T22:29:07.088Z,99938.06
2022-10-17T22:31:34.243Z,99945.69
2022-10-17T22:34:00.996Z,99943.19
2022-10-17T22:36:27.850Z,99939.87
2022-10-17T22:38:55.026Z,99936.56
2022-10-17T22:41:21.788Z,99935.16
2022-10-17T22:43:48.516Z,99932.69
2022-10-17T22:46:17.002Z,99935.41
2022-10-17T22:48:44.151Z,99930.19
2022-10-17T22:51:11.828Z,99942.47
2022-10-17T22:53:38.932Z,99924.16
2022-10-17T22:56:11.130Z,99935.34
2022-10-17T22:58:38.467Z,99927.38
2022-10-17T23:01:07.225Z,99924.31
2022-10-17T23:03:35.423Z,99925.37
2022-10-17T23:06:02.627Z,99925.63
2022-10-17T23:08:29.483Z,99925.03
2022-10-17T23:10:56.283Z,99920.66
2022-10-17T23:13:23.182Z,99923.06
2022-10-17T23:15:54.779Z,99921.38
2022-10-17T23:18:22.856Z,99916.19
2022-10-17T23:20:50.330Z,99913.94
2022-10-17T23:23:17.911Z,99912.53
2022-10-17T23:25:45.045Z,99904.59
2022-10-17T23:28:12.127Z,99909.22
2022-10-17T23:30:39.842Z,99908.41
2022-10-17T23:33:07.225Z,99903.41
2022-10-17T23:35:34.565Z,99909.97
2022-10-17T23:38:01.298Z,99900.56
2022-10-17T23:40:28.216Z,99894.78
2022-10-17T23:42:55.014Z,99898.00
2022-10-17T23:45:21.895Z,99883.53
2022-10-17T23:47:48.650Z,99890.81
2022-10-17T23:50:16.437Z,99888.56
2022-10-17T23:52:43.732Z,99883.59
2022-10-17T23:55:11.056Z,99883.00
2022-10-17T23:57:37.799Z,99884.31
